Time;durP1;ratioP1;P1;durP2;ratioP2;P2;SDS_P1;SDS_P2;PMS_P1;PMS_P2;Temp;Humidity;BMP_temperature;BMP_pressure;BME280_temperature;BME280_humidity;BME280_pressure;Samples;Min_cycle;Max_cycle;Signal;HPM_P1;HPM_P2
2023/03/20 00:00:30;;;;;;;;;;;;;;;9.54;68.70;92914.84;2045400;69;20050;-75
2023/03/20 00:02:58;;;;;;;;;;;;;;;9.60;68.22;92920.88;2045549;69;20105;-73
2023/03/20 00:05:27;;;;;;;;;;;;;;;9.45;68.72;92912.81;2045779;69;20040;-73
2023/03/20 00:07:54;;;;;;;;;;;;;;;9.51;68.58;92916.78;2045642;69;20056;-74
2023/03/20 00:10:21;;;;;;;;;;;;;;;9.68;67.75;92915.81;2045903;69;20055;-74
2023/03/20 00:12:48;;;;;;;;;;;;;;;9.70;68.16;92920.81;2045811;69;20055;-75
2023/03/20 00:15:29;;;;;;;;;;;;;;;9.83;67.30;92914.69;2045799;70;20489;-75
2023/03/20 00:17:58;;;;;;;;;;;;;;;9.72;67.25;92912.53;2045611;70;20535;-75
2023/03/20 00:20:24;;;;;;;;;;;;;;;9.83;67.42;92921.03;2045745;69;20274;-76
2023/03/20 00:22:52;;;;;;;;;;;;;;;9.48;68.88;92914.41;2045932;70;20101;-75
2023/03/20 00:25:23;;;;;;;;;;;;;;;9.70;68.07;92918.75;2045900;69;20054;-75
2023/03/20 00:27:51;;;;;;;;;;;;;;;9.77;68.53;92917.81;2045741;70;20062;-75
2023/03/20 00:30:21;;;;;;;;;;;;;;;9.68;68.57;92915.81;2045800;69;20071;-75
2023/03/20 00:32:51;;;;;;;;;;;;;;;9.61;69.24;92919.53;2044991;70;20051;-75
2023/03/20 00:35:32;;;;;;;;;;;;;;;9.62;69.23;92915.38;2045667;69;20066;-76
2023/03/20 00:38:04;;;;;;;;;;;;;;;9.67;68.90;92914.34;2045583;69;20055;-76
2023/03/20 00:40:36;;;;;;;;;;;;;;;9.60;69.31;92921.63;2052223;69;20155;-76
2023/03/20 00:43:03;;;;;;;;;;;;;;;9.57;69.32;92925.63;2051964;70;20160;-76
2023/03/20 00:45:30;;;;;;;;;;;;;;;9.68;68.33;92916.53;2052193;70;20057;-75
2023/03/20 00:47:57;;;;;;;;;;;;;;;9.52;69.31;92921.06;2052082;70;20159;-76
2023/03/20 00:50:28;;;;;;;;;;;;;;;9.62;68.90;92923.81;2064999;69;20647;-75
2023/03/20 00:52:58;;;;;;;;;;;;;;;9.66;68.51;92922.00;2066180;69;20086;-75
2023/03/20 00:55:27;;;;;;;;;;;;;;;9.56;69.30;92914.97;2053252;69;20057;-74
2023/03/20 00:58:01;;;;;;;;;;;;;;;9.57;68.37;92925.63;2053273;69;20070;-75
2023/03/20 01:00:42;;;;;;;;;;;;;;;9.64;67.95;92916.25;2065933;69;20454;-75
2023/03/20 01:03:25;;;;;;;;;;;;;;;9.64;67.78;92913.47;2053942;69;20118;-75
2023/03/20 01:05:53;;;;;;;;;;;;;;;9.54;68.36;92921.22;2053368;69;20051;-75
2023/03/20 01:08:22;;;;;;;;;;;;;;;9.43;68.21;92913.41;2053124;69;20113;-75
2023/03/20 01:10:50;;;;;;;;;;;;;;;9.40;68.55;92915.34;2053187;69;20050;-74
2023/03/20 01:13:24;;;;;;;;;;;;;;;9.50;68.45;92908.94;2053157;70;20173;-75
2023/03/20 01:15:51;;;;;;;;;;;;;;;9.37;69.27;92907.38;2053112;70;20497;-74
2023/03/20 01:18:24;;;;;;;;;;;;;;;9.54;67.56;92904.34;2053035;70;20081;-75
2023/03/20 01:21:01;;;;;;;;;;;;;;;9.39;68.42;92911.09;2053085;70;20500;-75
2023/03/20 01:23:27;;;;;;;;;;;;;;;9.35;70.04;92901.63;2053247;70;20116;-75
2023/03/20 01:25:54;;;;;;;;;;;;;;;9.45;68.27;92902.31;2053562;69;20453;-75
2023/03/20 01:28:22;;;;;;;;;;;;;;;9.38;68.81;92909.59;2065968;69;20078;-75
2023/03/20 01:30:48;;;;;;;;;;;;;;;9.43;68.48;92914.13;2052947;70;20240;-75
2023/03/20 01:33:16;;;;;;;;;;;;;;;9.40;67.39;92901.31;2066129;69;20059;-75
2023/03/20 01:35:44;;;;;;;;;;;;;;;9.39;67.85;92905.47;2066145;69;20509;-74
2023/03/20 01:38:17;;;;;;;;;;;;;;;9.48;66.68;92908.81;2053219;69;20047;-75
2023/03/20 01:40:43;;;;;;;;;;;;;;;9.27;68.32;92904.63;2066141;69;20177;-75
2023/03/20 01:43:15;;;;;;;;;;;;;;;9.29;68.64;92901.19;2066094;69;20484;-74
2023/03/20 01:46:06;;;;;;;;;;;;;;;9.12;69.55;92899.38;2053144;70;20058;-75
2023/03/20 01:48:50;;;;;;;;;;;;;;;9.13;68.88;92898.75;2053193;69;20058;-75
2023/03/20 01:51:21;;;;;;;;;;;;;;;9.13;68.46;92895.22;2053240;69;20051;-75
2023/03/20 01:53:52;;;;;;;;;;;;;;;9.26;67.88;92903.16;2066104;69;20070;-75
2023/03/20 01:56:18;;;;;;;;;;;;;;;9.24;68.58;92894.56;2053090;69;20482;-74
2023/03/20 01:58:55;;;;;;;;;;;;;;;9.28;68.46;92903.28;2053213;69;20090;-75
2023/03/20 02:01:24;;;;;;;;;;;;;;;9.09;69.79;92897.75;2052854;70;20074;-74
2023/03/20 02:03:52;;;;;;;;;;;;;;;9.14;69.03;92896.69;2065478;69;20086;-75
2023/03/20 02:06:32;;;;;;;;;;;;;;;9.21;68.53;92901.41;2065527;69;20071;-75
2023/03/20 02:09:15;;;;;;;;;;;;;;;9.09;69.44;92898.47;2065439;69;20089;-73
2023/03/20 02:11:44;;;;;;;;;;;;;;;9.20;68.41;92899.91;2052604;70;20094;-75
2023/03/20 02:14:19;;;;;;;;;;;;;;;9.10;68.87;92905.56;2052366;70;20066;-75
2023/03/20 02:17:01;;;;;;;;;;;;;;;9.17;68.80;92901.13;2064557;69;20039;-75
2023/03/20 02:19:53;;;;;;;;;;;;;;;9.02;69.54;92896.56;2052848;69;20062;-76
2023/03/20 02:22:20;;;;;;;;;;;;;;;9.05;69.53;92892.59;2065591;69;20145;-76
2023/03/20 02:24:56;;;;;;;;;;;;;;;9.09;68.73;92898.47;2052648;69;20078;-76
2023/03/20 02:27:41;;;;;;;;;;;;;;;9.10;68.95;92893.59;2065605;69;20086;-75
2023/03/20 02:30:26;;;;;;;;;;;;;;;9.01;69.34;92892.28;2052428;70;20540;-75
2023/03/20 02:33:06;;;;;;;;;;;;;;;9.09;68.23;92886.50;2065169;69;20049;-77
2023/03/20 02:35:49;;;;;;;;;;;;;;;9.16;67.70;92888.38;2062613;69;20063;-75
2023/03/20 02:38:38;;;;;;;;;;;;;;;9.10;68.35;92885.16;2052367;69;20964;-74
2023/03/20 02:41:07;;;;;;;;;;;;;;;8.92;69.95;92887.44;2065640;69;20495;-76
2023/03/20 02:43:55;;;;;;;;;;;;;;;8.99;69.02;92880.94;2052663;69;20145;-75
2023/03/20 02:46:21;;;;;;;;;;;;;;;8.89;69.73;92875.34;2052408;69;20058;-75
2023/03/20 02:48:56;;;;;;;;;;;;;;;8.97;69.20;92877.22;2065592;69;20470;-75
2023/03/20 02:51:25;;;;;;;;;;;;;;;8.95;69.62;92879.91;2052753;69;20478;-74
2023/03/20 02:53:52;;;;;;;;;;;;;;;8.95;69.25;92877.09;2052723;69;20046;-75
2023/03/20 02:56:33;;;;;;;;;;;;;;;8.96;69.25;92879.31;2065670;69;20055;-75
2023/03/20 02:59:09;;;;;;;;;;;;;;;8.85;70.00;92877.16;2052556;70;20538;-74
2023/03/20 03:01:50;;;;;;;;;;;;;;;8.90;68.95;92888.06;2052441;70;20058;-75
2023/03/20 03:04:30;;;;;;;;;;;;;;;8.86;70.03;92887.78;2065551;69;20094;-75
2023/03/20 03:07:02;;;;;;;;;;;;;;;8.95;69.26;92886.25;2052592;70;20057;-75
2023/03/20 03:09:34;;;;;;;;;;;;;;;8.86;69.92;92895.47;2065736;69;20050;-76
2023/03/20 03:12:09;;;;;;;;;;;;;;;8.86;70.31;92881.41;2052883;69;20062;-76
2023/03/20 03:14:40;;;;;;;;;;;;;;;8.93;69.27;92882.56;2052963;69;20150;-75
2023/03/20 03:17:19;;;;;;;;;;;;;;;8.81;70.03;92886.00;2065390;69;20122;-75
2023/03/20 03:19:53;;;;;;;;;;;;;;;8.94;69.19;92879.19;2052572;69;20085;-75
2023/03/20 03:22:23;;;;;;;;;;;;;;;8.90;69.80;92884.50;2052248;69;20071;-75
2023/03/20 03:24:54;;;;;;;;;;;;;;;8.79;70.30;92883.06;2052640;69;20515;-75
2023/03/20 03:27:21;;;;;;;;;;;;;;;8.83;70.14;92888.22;2052371;70;20043;-75
2023/03/20 03:30:05;;;;;;;;;;;;;;;8.80;70.27;92887.34;2065291;69;20061;-76
2023/03/20 03:33:04;;;;;;;;;;;;;;;8.77;70.66;92885.72;2052154;69;20070;-75
2023/03/20 03:35:34;;;;;;;;;;;;;;;8.78;70.56;92883.66;2050310;70;20571;-75
2023/03/20 03:38:25;;;;;;;;;;;;;;;8.78;70.51;92884.38;2065204;69;20050;-73
2023/03/20 03:41:04;;;;;;;;;;;;;;;8.84;70.06;92889.69;2052277;69;20062;-75
2023/03/20 03:43:42;;;;;;;;;;;;;;;8.80;70.35;92897.84;2052253;70;20051;-74
2023/03/20 03:46:13;;;;;;;;;;;;;;;8.90;70.15;92898.56;2052142;69;20051;-74
2023/03/20 03:48:51;;;;;;;;;;;;;;;8.85;69.82;92900.34;2064932;69;20097;-76
2023/03/20 03:51:22;;;;;;;;;;;;;;;8.88;70.00;92896.31;2052409;69;20465;-76
2023/03/20 03:54:08;;;;;;;;;;;;;;;8.80;70.37;92892.97;2062678;69;20059;-75
2023/03/20 03:56:40;;;;;;;;;;;;;;;8.82;69.92;92898.72;2065162;69;20086;-76
2023/03/20 03:59:13;;;;;;;;;;;;;;;8.79;70.56;92893.53;2065312;69;20058;-75
2023/03/20 04:01:43;;;;;;;;;;;;;;;8.76;70.55;92895.50;2065298;69;20494;-77
2023/03/20 04:04:11;;;;;;;;;;;;;;;8.72;70.28;92902.88;2052368;69;20046;-76
2023/03/20 04:06:39;;;;;;;;;;;;;;;8.74;70.36;92903.00;2065135;69;20054;-77
2023/03/20 04:09:06;;;;;;;;;;;;;;;8.69;70.31;92910.41;2065012;69;20054;-74
2023/03/20 04:11:34;;;;;;;;;;;;;;;8.74;70.64;92909.38;2052126;69;20108;-77
2023/03/20 04:14:02;;;;;;;;;;;;;;;8.71;71.00;92913.38;2063412;69;20055;-76
2023/03/20 04:16:38;;;;;;;;;;;;;;;8.69;70.64;92915.28;2051943;70;20688;-74
2023/03/20 04:19:25;;;;;;;;;;;;;;;8.64;70.99;92917.81;2062292;69;20124;-76
2023/03/20 04:22:02;;;;;;;;;;;;;;;8.56;71.91;92917.22;2052656;69;20461;-76
2023/03/20 04:24:35;;;;;;;;;;;;;;;8.65;71.13;92912.94;2065107;69;20570;-75
2023/03/20 04:27:11;;;;;;;;;;;;;;;8.63;71.45;92919.13;2052467;69;20124;-75
2023/03/20 04:29:51;;;;;;;;;;;;;;;8.64;71.50;92917.81;2052095;70;20057;-77
2023/03/20 04:32:40;;;;;;;;;;;;;;;8.73;70.99;92929.63;2052568;69;20054;-76
2023/03/20 04:35:14;;;;;;;;;;;;;;;8.59;71.63;92924.47;2052629;69;20051;-75
2023/03/20 04:37:49;;;;;;;;;;;;;;;8.64;71.39;92928.28;2065201;69;20172;-75
2023/03/20 04:40:24;;;;;;;;;;;;;;;8.53;71.43;92932.47;2046004;69;20418;-75
2023/03/20 04:42:54;;;;;;;;;;;;;;;8.74;70.55;92929.00;2045697;70;20055;-73
2023/03/20 04:45:21;;;;;;;;;;;;;;;8.77;70.29;92930.63;2042239;69;20055;-75
2023/03/20 04:47:51;;;;;;;;;;;;;;;8.60;70.76;92933.63;2044832;70;20257;-76
2023/03/20 04:50:20;;;;;;;;;;;;;;;8.50;71.94;92939.25;2045118;70;20075;-77
2023/03/20 04:52:48;;;;;;;;;;;;;;;8.59;72.00;92938.50;2045115;70;20521;-75
2023/03/20 04:55:15;;;;;;;;;;;;;;;8.62;71.01;92931.69;2045506;70;20063;-75
2023/03/20 04:57:42;;;;;;;;;;;;;;;8.54;71.72;92931.13;2045549;70;20163;-74
2023/03/20 05:00:15;;;;;;;;;;;;;;;8.56;72.38;92936.88;2044946;70;20051;-75
2023/03/20 05:02:42;;;;;;;;;;;;;;;8.48;73.02;92936.31;2045498;70;20059;-75
2023/03/20 05:05:10;;;;;;;;;;;;;;;8.53;71.93;92928.91;2044972;69;20098;-74
2023/03/20 05:07:38;;;;;;;;;;;;;;;8.52;72.02;92938.63;2045652;70;20087;-74
2023/03/20 05:10:08;;;;;;;;;;;;;;;8.48;72.03;92930.69;2045072;70;20106;-74
2023/03/20 05:13:01;;;;;;;;;;;;;;;8.57;71.79;92932.00;2045046;70;20576;-74
2023/03/20 05:15:55;;;;;;;;;;;;;;;8.45;72.13;92931.13;2037935;70;20151;-73
2023/03/20 05:18:48;;;;;;;;;;;;;;;8.50;71.48;92928.03;2037784;70;20075;-74
2023/03/20 05:21:32;;;;;;;;;;;;;;;8.47;72.04;92928.47;2037993;70;20100;-72
2023/03/20 05:24:00;;;;;;;;;;;;;;;8.45;71.79;92931.13;2038018;70;20056;-74
2023/03/20 05:26:31;;;;;;;;;;;;;;;8.55;72.13;92926.25;2037865;70;20107;-74
2023/03/20 05:29:24;;;;;;;;;;;;;;;8.60;71.67;92936.41;2036991;70;20056;-74
2023/03/20 05:32:14;;;;;;;;;;;;;;;8.54;71.24;92933.19;2037914;70;20142;-75
2023/03/20 05:35:14;;;;;;;;;;;;;;;8.59;71.57;92934.94;2034055;70;20500;-74
2023/03/20 05:38:02;;;;;;;;;;;;;;;8.51;71.70;92937.91;2034419;70;20074;-74
2023/03/20 05:40:59;;;;;;;;;;;;;;;8.06;74.46;92945.88;2041699;70;20051;-74
2023/03/20 05:43:44;;;;;;;;;;;;;;;8.27;72.41;92941.75;2041556;70;20051;-75
2023/03/20 05:46:28;;;;;;;;;;;;;;;8.41;72.27;92940.00;2041495;70;20159;-75
2023/03/20 05:49:14;;;;;;;;;;;;;;;8.43;72.11;92937.34;2041669;70;20060;-75
2023/03/20 05:52:02;;;;;;;;;;;;;;;8.40;72.54;92946.94;2039375;69;20271;-75
2023/03/20 05:54:37;;;;;;;;;;;;;;;8.43;73.04;92948.56;2048964;70;20055;-75
2023/03/20 05:57:18;;;;;;;;;;;;;;;8.57;72.44;92957.28;2049412;70;20063;-75
2023/03/20 06:00:04;;;;;;;;;;;;;;;8.57;72.15;92963.63;2048908;70;20123;-72
2023/03/20 06:02:57;;;;;;;;;;;;;;;8.56;72.48;92970.53;2048615;70;20051;-76
2023/03/20 06:05:43;;;;;;;;;;;;;;;8.45;72.36;92973.22;2048760;70;20078;-75
2023/03/20 06:08:10;;;;;;;;;;;;;;;8.62;71.65;92976.59;2049239;70;20090;-76
2023/03/20 06:10:36;;;;;;;;;;;;;;;8.57;71.77;92980.47;2049289;70;20061;-75
2023/03/20 06:13:02;;;;;;;;;;;;;;;8.58;71.69;92973.50;2048912;70;20047;-75
2023/03/20 06:15:29;;;;;;;;;;;;;;;8.55;71.58;92983.09;2049222;70;20059;-77
2023/03/20 06:18:05;;;;;;;;;;;;;;;8.36;72.63;92983.84;2048767;70;20045;-76
2023/03/20 06:20:34;;;;;;;;;;;;;;;8.52;71.97;92983.53;2048677;69;20043;-77
2023/03/20 06:23:02;;;;;;;;;;;;;;;8.50;72.45;92981.34;2048846;70;20094;-74
2023/03/20 06:25:28;;;;;;;;;;;;;;;8.55;71.79;92988.72;2049242;70;20267;-74
2023/03/20 06:27:53;;;;;;;;;;;;;;;8.67;71.21;92977.63;2048730;70;20134;-75
2023/03/20 06:30:20;;;;;;;;;;;;;;;8.77;71.05;92988.84;2049173;70;20047;-75
2023/03/20 06:32:48;;;;;;;;;;;;;;;8.15;74.00;92992.06;2048867;70;20145;-75
2023/03/20 06:35:17;;;;;;;;;;;;;;;8.56;73.13;92997.88;2048794;70;20122;-74
2023/03/20 06:37:46;;;;;;;;;;;;;;;8.76;71.47;92995.81;2046057;70;20054;-74
2023/03/20 06:40:21;;;;;;;;;;;;;;;8.77;71.35;92992.41;2052047;70;20047;-74
2023/03/20 06:42:48;;;;;;;;;;;;;;;8.79;71.98;92989.72;2065307;69;20086;-76
2023/03/20 06:45:16;;;;;;;;;;;;;;;8.85;72.11;92998.59;2065530;69;20062;-75
2023/03/20 06:47:52;;;;;;;;;;;;;;;8.88;71.38;92996.66;2052252;70;20493;-75
2023/03/20 06:50:19;;;;;;;;;;;;;;;8.80;71.04;93001.72;2064724;69;20110;-76
2023/03/20 06:52:46;;;;;;;;;;;;;;;8.76;71.61;92990.19;2049130;70;20489;-76
2023/03/20 06:55:30;;;;;;;;;;;;;;;9.00;71.04;92996.81;2065349;69;20050;-76
2023/03/20 06:57:57;;;;;;;;;;;;;;;8.94;71.30;93002.00;2065498;69;20047;-76
2023/03/20 07:00:23;;;;;;;;;;;;;;;8.80;72.09;93005.25;2065377;69;20062;-75
2023/03/20 07:02:48;;;;;;;;;;;;;;;8.96;72.36;92999.31;2065278;69;20058;-75
2023/03/20 07:05:15;;;;;;;;;;;;;;;9.10;71.32;93003.88;2065390;69;20411;-76
2023/03/20 07:07:40;;;;;;;;;;;;;;;9.36;70.80;93012.69;2052377;70;20078;-76
2023/03/20 07:10:06;;;;;;;;;;;;;;;9.36;71.30;93009.88;2065412;69;20154;-76
2023/03/20 07:12:33;;;;;;;;;;;;;;;9.60;69.92;93013.63;2065312;69;20478;-76
2023/03/20 07:14:59;;;;;;;;;;;;;;;9.62;70.17;93013.75;2052423;70;20583;-75
2023/03/20 07:17:25;;;;;;;;;;;;;;;9.52;69.24;93010.25;2052590;69;20125;-75
2023/03/20 07:19:51;;;;;;;;;;;;;;;9.74;69.50;93005.44;2062629;69;20148;-75
2023/03/20 07:22:20;;;;;;;;;;;;;;;9.68;69.94;93012.13;2064982;69;20050;-76
2023/03/20 07:24:46;;;;;;;;;;;;;;;9.73;69.32;93001.88;2065383;69;20413;-76
2023/03/20 07:27:12;;;;;;;;;;;;;;;9.73;68.78;93004.72;2065367;69;20079;-76
2023/03/20 07:29:39;;;;;;;;;;;;;;;9.99;68.52;93002.19;2052497;70;20055;-74
2023/03/20 07:32:10;;;;;;;;;;;;;;;10.07;69.14;93003.47;2065326;69;20107;-74
2023/03/20 07:34:39;;;;;;;;;;;;;;;10.09;67.86;93012.06;2052432;69;20154;-74
2023/03/20 07:37:06;;;;;;;;;;;;;;;10.17;67.94;93015.44;2062537;69;20177;-74
2023/03/20 07:39:32;;;;;;;;;;;;;;;10.54;67.61;93014.34;2068039;69;20068;-75
2023/03/20 07:42:25;;;;;;;;;;;;;;;10.92;67.04;93019.66;2068068;69;20576;-74
2023/03/20 07:44:58;;;;;;;;;;;;;;;10.58;66.22;93015.34;2068524;69;20593;-74
2023/03/20 07:47:23;;;;;;;;;;;;;;;10.98;67.30;93016.50;2067826;69;20061;-75
2023/03/20 07:49:51;;;;;;;;;;;;;;;11.49;64.10;93021.78;2068548;69;20500;-75
2023/03/20 07:52:16;;;;;;;;;;;;;;;11.66;64.03;93021.44;2065293;69;20081;-76
2023/03/20 07:54:41;;;;;;;;;;;;;;;11.95;63.00;93027.50;2068435;69;20498;-76
2023/03/20 07:57:07;;;;;;;;;;;;;;;12.21;61.86;93019.16;2067982;69;20490;-75
2023/03/20 07:59:33;;;;;;;;;;;;;;;12.37;62.06;93025.78;2067879;69;20490;-76
2023/03/20 08:01:58;;;;;;;;;;;;;;;12.03;60.62;93024.44;2068184;69;20052;-75
2023/03/20 08:04:24;;;;;;;;;;;;;;;12.39;60.83;93025.88;2068671;69;20411;-76
2023/03/20 08:06:50;;;;;;;;;;;;;;;12.65;57.93;93035.19;2068502;69;20056;-76
2023/03/20 08:09:16;;;;;;;;;;;;;;;13.48;59.38;93036.38;2068521;69;20045;-76
2023/03/20 08:11:41;;;;;;;;;;;;;;;13.79;55.71;93035.22;2068502;69;20053;-77
2023/03/20 08:14:07;;;;;;;;;;;;;;;13.80;56.10;93036.69;2068498;69;20076;-74
2023/03/20 08:16:33;;;;;;;;;;;;;;;14.11;54.82;93029.78;2068451;69;20136;-75
2023/03/20 08:19:04;;;;;;;;;;;;;;;14.32;53.52;93031.59;2068524;69;20152;-75
2023/03/20 08:21:30;;;;;;;;;;;;;;;14.44;52.95;93029.41;2068809;69;20080;-74
2023/03/20 08:23:56;;;;;;;;;;;;;;;14.18;53.74;93020.28;2068777;69;20111;-75
2023/03/20 08:26:22;;;;;;;;;;;;;;;14.84;51.88;93027.19;2068552;69;20052;-73
2023/03/20 08:28:47;;;;;;;;;;;;;;;13.22;55.61;93023.59;2068473;69;20508;-75
2023/03/20 08:31:14;;;;;;;;;;;;;;;14.97;52.00;93009.44;2068342;69;20504;-75
2023/03/20 08:33:40;;;;;;;;;;;;;;;15.37;51.44;93013.50;2068481;69;20123;-74
2023/03/20 08:36:06;;;;;;;;;;;;;;;15.36;49.74;93020.56;2068603;69;20061;-75
2023/03/20 08:38:32;;;;;;;;;;;;;;;16.05;47.97;93028.03;2063655;69;20047;-76
2023/03/20 08:40:57;;;;;;;;;;;;;;;16.30;46.99;93029.84;2045783;70;20075;-75
2023/03/20 08:43:22;;;;;;;;;;;;;;;16.74;46.57;93036.81;2045650;70;20048;-76
2023/03/20 08:45:48;;;;;;;;;;;;;;;17.07;47.19;93044.63;2045648;70;20430;-76
2023/03/20 08:48:14;;;;;;;;;;;;;;;17.40;45.32;93045.97;2045505;70;20082;-77
2023/03/20 08:50:39;;;;;;;;;;;;;;;17.54;44.63;93044.41;2045653;70;20047;-76
2023/03/20 08:53:05;;;;;;;;;;;;;;;18.00;42.37;93036.28;2045700;70;20055;-75
2023/03/20 08:55:32;;;;;;;;;;;;;;;17.86;44.15;93038.59;2045486;70;20067;-75
2023/03/20 08:57:57;;;;;;;;;;;;;;;16.40;46.02;93036.00;2045461;70;20071;-75
2023/03/20 09:00:24;;;;;;;;;;;;;;;17.88;43.57;93035.84;2045588;70;20075;-75
2023/03/20 09:02:50;;;;;;;;;;;;;;;17.88;44.09;93018.75;2044920;70;20051;-75
2023/03/20 09:05:16;;;;;;;;;;;;;;;18.37;43.61;93023.44;2044931;70;20093;-76
2023/03/20 09:07:41;;;;;;;;;;;;;;;17.61;44.28;93019.06;2045711;69;20083;-76
2023/03/20 09:10:08;;;;;;;;;;;;;;;17.70;43.62;93013.03;2045581;70;20079;-79
2023/03/20 09:12:34;;;;;;;;;;;;;;;19.23;42.01;93006.50;2045702;70;20418;-75
2023/03/20 09:15:00;;;;;;;;;;;;;;;19.39;39.07;93012.75;2046008;70;20505;-78
2023/03/20 09:17:25;;;;;;;;;;;;;;;17.82;43.27;93003.53;2045912;70;20044;-75
2023/03/20 09:19:51;;;;;;;;;;;;;;;18.11;41.62;92994.69;2046017;70;20050;-76
2023/03/20 09:22:19;;;;;;;;;;;;;;;18.80;40.97;92996.50;2046026;70;20048;-74
2023/03/20 09:24:45;;;;;;;;;;;;;;;19.25;40.56;92986.59;2045936;70;20495;-73
2023/03/20 09:27:14;;;;;;;;;;;;;;;18.07;41.64;92982.41;2045337;70;20054;-77
2023/03/20 09:29:40;;;;;;;;;;;;;;;18.88;38.82;92979.66;2046009;70;20129;-75
2023/03/20 09:32:05;;;;;;;;;;;;;;;18.67;41.41;92975.34;2045929;70;20055;-76
2023/03/20 09:34:30;;;;;;;;;;;;;;;17.44;41.71;92980.69;2046102;70;20044;-75
2023/03/20 09:36:58;;;;;;;;;;;;;;;18.93;39.09;92969.13;2045999;70;20094;-74
2023/03/20 09:39:23;;;;;;;;;;;;;;;19.94;38.38;92965.97;2049670;70;20472;-74
2023/03/20 09:41:49;;;;;;;;;;;;;;;20.34;36.74;92964.97;2052587;70;20055;-74
2023/03/20 09:44:58;;;;;;;;;;;;;;;21.51;34.87;92964.56;2052561;70;20060;-74
2023/03/20 09:47:23;;;;;;;;;;;;;;;20.67;34.97;92966.66;2041775;70;20055;-75
2023/03/20 09:49:51;;;;;;;;;;;;;;;21.54;35.66;92960.34;2041873;70;20052;-74
2023/03/20 09:52:26;;;;;;;;;;;;;;;20.62;37.29;92957.22;2050065;69;20429;-74
2023/03/20 09:54:53;;;;;;;;;;;;;;;21.50;36.09;92962.38;2052569;70;20059;-74
2023/03/20 09:57:42;;;;;;;;;;;;;;;20.66;37.49;92959.44;2052575;70;20075;-73
2023/03/20 10:00:12;;;;;;;;;;;;;;;19.63;37.62;92958.59;2041899;70;20083;-75
2023/03/20 10:02:58;;;;;;;;;;;;;;;21.17;35.82;92955.81;2041845;70;20083;-73
2023/03/20 10:05:28;;;;;;;;;;;;;;;21.80;34.96;92959.50;2041857;70;20570;-72
2023/03/20 10:07:55;;;;;;;;;;;;;;;22.33;33.88;92957.84;2042041;70;20118;-72
2023/03/20 10:10:26;;;;;;;;;;;;;;;23.17;33.03;92954.47;2039148;70;20068;-73
2023/03/20 10:13:12;;;;;;;;;;;;;;;21.76;34.35;92950.78;2041912;70;20051;-72
2023/03/20 10:15:44;;;;;;;;;;;;;;;20.85;34.52;92952.09;2042051;70;20087;-74
2023/03/20 10:18:18;;;;;;;;;;;;;;;20.83;34.59;92960.63;2041918;70;20071;-74
2023/03/20 10:20:52;;;;;;;;;;;;;;;22.28;34.40;92953.44;2042078;70;20084;-74
2023/03/20 10:23:26;;;;;;;;;;;;;;;21.30;35.98;92965.44;2039196;70;20076;-74
2023/03/20 10:25:57;;;;;;;;;;;;;;;22.78;34.02;92962.34;2041758;70;20569;-75
2023/03/20 10:28:31;;;;;;;;;;;;;;;22.65;33.50;92962.78;2041825;70;20416;-75
2023/03/20 10:31:15;;;;;;;;;;;;;;;22.19;34.02;92969.72;2042063;70;20135;-73
2023/03/20 10:33:53;;;;;;;;;;;;;;;22.34;33.67;92962.16;2041776;70;20062;-75
2023/03/20 10:36:30;;;;;;;;;;;;;;;22.58;33.81;92959.78;2040708;70;20057;-74
2023/03/20 10:39:00;;;;;;;;;;;;;;;21.96;33.48;92959.88;2052295;70;20047;-74
2023/03/20 10:41:35;;;;;;;;;;;;;;;21.43;33.97;92950.03;2052453;70;20046;-74
2023/03/20 10:44:01;;;;;;;;;;;;;;;20.11;35.68;92947.16;2052380;70;20057;-74
2023/03/20 10:46:27;;;;;;;;;;;;;;;20.99;34.24;92950.34;2052313;70;20487;-74
2023/03/20 10:49:00;;;;;;;;;;;;;;;20.64;33.76;92954.41;2065246;69;20046;-74
2023/03/20 10:51:46;;;;;;;;;;;;;;;20.68;35.71;92936.63;2052414;70;20596;-74
2023/03/20 10:54:38;;;;;;;;;;;;;;;20.73;35.16;92933.22;2065430;69;20089;-75
2023/03/20 10:57:05;;;;;;;;;;;;;;;20.69;35.49;92938.09;2064006;69;20133;-74
2023/03/20 10:59:33;;;;;;;;;;;;;;;19.96;36.41;92933.84;2052676;69;20039;-75
2023/03/20 11:01:59;;;;;;;;;;;;;;;19.41;37.19;92927.16;2052268;70;20138;-74
2023/03/20 11:04:25;;;;;;;;;;;;;;;20.61;35.05;92923.56;2052379;70;20146;-74
2023/03/20 11:07:05;;;;;;;;;;;;;;;21.34;34.33;92925.47;2052286;70;20057;-74
2023/03/20 11:09:32;;;;;;;;;;;;;;;21.52;33.21;92920.19;2052349;70;20046;-74
2023/03/20 11:11:58;;;;;;;;;;;;;;;21.12;33.99;92922.03;2052375;70;20112;-74
2023/03/20 11:14:25;;;;;;;;;;;;;;;19.73;36.29;92924.63;2065423;69;20470;-74
2023/03/20 11:16:55;;;;;;;;;;;;;;;19.27;38.33;92921.00;2052308;70;20100;-73
2023/03/20 11:19:22;;;;;;;;;;;;;;;19.75;37.07;92921.84;2052369;70;20093;-74
2023/03/20 11:21:50;;;;;;;;;;;;;;;18.02;39.78;92922.44;2052389;69;20165;-74
2023/03/20 11:24:34;;;;;;;;;;;;;;;20.02;37.29;92925.47;2052754;70;20124;-74
2023/03/20 11:27:29;;;;;;;;;;;;;;;19.18;38.97;92925.72;2052534;69;20154;-74
2023/03/20 11:29:57;;;;;;;;;;;;;;;21.85;35.34;92915.19;2050048;69;20057;-74
2023/03/20 11:32:34;;;;;;;;;;;;;;;22.12;34.09;92927.25;2052192;70;20058;-73
2023/03/20 11:35:09;;;;;;;;;;;;;;;23.04;33.81;92924.06;2052556;70;20070;-73
2023/03/20 11:37:42;;;;;;;;;;;;;;;23.15;33.15;92917.09;2052549;70;20145;-73
2023/03/20 11:40:19;;;;;;;;;;;;;;;21.87;34.52;92911.66;2065371;69;20059;-74
2023/03/20 11:42:57;;;;;;;;;;;;;;;22.47;34.48;92922.97;2052473;70;20480;-74
2023/03/20 11:45:26;;;;;;;;;;;;;;;21.08;33.79;92916.94;2052320;70;20099;-74
2023/03/20 11:47:52;;;;;;;;;;;;;;;21.57;33.61;92915.28;2052197;70;20054;-74
2023/03/20 11:50:30;;;;;;;;;;;;;;;20.51;35.88;92909.72;2052455;69;20575;-74
2023/03/20 11:52:56;;;;;;;;;;;;;;;20.89;35.76;92912.91;2052470;70;20074;-73
2023/03/20 11:55:25;;;;;;;;;;;;;;;17.49;39.71;92911.88;2065092;69;20067;-72
2023/03/20 11:57:54;;;;;;;;;;;;;;;18.57;39.20;92897.28;2065186;69;20497;-74
2023/03/20 12:00:21;;;;;;;;;;;;;;;21.97;34.78;92898.28;2052220;70;20055;-74
2023/03/20 12:02:47;;;;;;;;;;;;;;;20.51;34.90;92893.28;2052264;69;20103;-74
2023/03/20 12:05:27;;;;;;;;;;;;;;;24.79;31.05;92895.03;2052366;70;20058;-73
2023/03/20 12:07:57;;;;;;;;;;;;;;;28.33;27.18;92909.63;2052224;70;20046;-74
2023/03/20 12:10:27;;;;;;;;;;;;;;;28.29;24.79;92909.63;2052274;70;20526;-73
2023/03/20 12:13:01;;;;;;;;;;;;;;;24.27;28.98;92892.94;2052352;70;20053;-72
2023/03/20 12:15:31;;;;;;;;;;;;;;;26.91;26.44;92895.09;2052205;70;20082;-73
2023/03/20 12:18:03;;;;;;;;;;;;;;;24.39;28.54;92886.66;2052082;70;20093;-73
2023/03/20 12:20:33;;;;;;;;;;;;;;;23.86;29.76;92877.28;2052081;70;20471;-73
2023/03/20 12:23:02;;;;;;;;;;;;;;;21.52;32.41;92882.22;2052262;70;20078;-75
2023/03/20 12:25:36;;;;;;;;;;;;;;;22.20;32.28;92876.56;2052160;70;20510;-73
2023/03/20 12:28:05;;;;;;;;;;;;;;;21.66;32.31;92871.06;2052429;69;20055;-73
2023/03/20 12:30:37;;;;;;;;;;;;;;;21.09;33.67;92875.47;2052310;69;20479;-73
2023/03/20 12:33:07;;;;;;;;;;;;;;;20.48;34.92;92874.63;2052067;70;20461;-74
2023/03/20 12:35:40;;;;;;;;;;;;;;;20.74;33.90;92877.44;2065097;69;20201;-74
2023/03/20 12:38:25;;;;;;;;;;;;;;;21.20;33.30;92877.16;2052157;70;20065;-73
2023/03/20 12:40:53;;;;;;;;;;;;;;;21.03;32.47;92881.78;2052126;70;20054;-74
2023/03/20 12:43:26;;;;;;;;;;;;;;;20.86;32.97;92874.19;2052038;70;20132;-74
2023/03/20 12:46:10;;;;;;;;;;;;;;;19.55;34.06;92870.50;2064934;69;20062;-74
2023/03/20 12:48:54;;;;;;;;;;;;;;;20.37;34.10;92875.00;2051895;70;20169;-74
2023/03/20 12:51:31;;;;;;;;;;;;;;;20.31;34.21;92875.56;2064861;69;20139;-74
2023/03/20 12:54:08;;;;;;;;;;;;;;;20.15;34.55;92875.84;2052237;70;20050;-74
2023/03/20 12:56:53;;;;;;;;;;;;;;;19.16;37.25;92870.72;2064959;69;20054;-73
2023/03/20 12:59:30;;;;;;;;;;;;;;;18.43;37.59;92869.03;2052123;70;20071;-73
2023/03/20 13:02:22;;;;;;;;;;;;;;;18.92;36.68;92874.25;2051942;70;20065;-73
2023/03/20 13:04:50;;;;;;;;;;;;;;;17.88;38.01;92864.97;2041327;70;20062;-73
2023/03/20 13:07:20;;;;;;;;;;;;;;;17.53;38.81;92862.91;2041313;70;20051;-73
2023/03/20 13:10:16;;;;;;;;;;;;;;;18.60;37.17;92865.34;2041285;70;20157;-73
2023/03/20 13:13:05;;;;;;;;;;;;;;;18.66;37.33;92850.53;2033018;70;20068;-73
2023/03/20 13:15:37;;;;;;;;;;;;;;;18.56;37.21;92853.06;2041486;70;20059;-73
2023/03/20 13:18:25;;;;;;;;;;;;;;;17.44;38.36;92855.47;2041345;70;20052;-73
2023/03/20 13:20:52;;;;;;;;;;;;;;;19.35;35.71;92849.19;2041443;70;20438;-73